sensor_id;sensor_type;location;lat;lon;timestamp;pressure;altitude;pressure_sealevel;temperature;humidity
47913;BME280;33676;51.006;17.180;2023-05-23T00:00:00;99971.82;;;14.17;67.55
47913;BME280;33676;51.006;17.180;2023-05-23T00:02:29;99959.91;;;14.15;67.66
47913;BME280;33676;51.006;17.180;2023-05-23T00:04:58;99962.86;;;14.12;67.79
47913;BME280;33676;51.006;17.180;2023-05-23T00:07:26;99959.40;;;14.08;67.81
47913;BME280;33676;51.006;17.180;2023-05-23T00:09:54;99956.40;;;14.03;67.90
47913;BME280;33676;51.006;17.180;2023-05-23T00:12:23;99964.90;;;13.99;67.94
47913;BME280;33676;51.006;17.180;2023-05-23T00:14:51;99968.65;;;13.95;68.08
47913;BME280;33676;51.006;17.180;2023-05-23T00:17:20;99961.88;;;13.88;68.25
47913;BME280;33676;51.006;17.180;2023-05-23T00:19:52;99959.18;;;13.80;68.33
47913;BME280;33676;51.006;17.180;2023-05-23T00:22:23;99960.41;;;13.72;68.49
47913;BME280;33676;51.006;17.180;2023-05-23T00:24:51;99962.15;;;13.64;68.62
47913;BME280;33676;51.006;17.180;2023-05-23T00:27:20;99957.16;;;13.57;68.76
47913;BME280;33676;51.006;17.180;2023-05-23T00:29:48;99955.92;;;13.52;68.83
47913;BME280;33676;51.006;17.180;2023-05-23T00:32:17;99957.38;;;13.48;68.96
47913;BME280;33676;51.006;17.180;2023-05-23T00:34:45;99955.09;;;13.44;69.07
47913;BME280;33676;51.006;17.180;2023-05-23T00:37:13;99953.96;;;13.41;69.15
47913;BME280;33676;51.006;17.180;2023-05-23T00:39:42;99948.42;;;13.39;69.27
47913;BME280;33676;51.006;17.180;2023-05-23T00:42:10;99948.73;;;13.35;69.40
47913;BME280;33676;51.006;17.180;2023-05-23T00:44:39;99947.77;;;13.33;69.44
47913;BME280;33676;51.006;17.180;2023-05-23T00:47:07;99944.13;;;13.30;69.54
47913;BME280;33676;51.006;17.180;2023-05-23T00:49:36;99947.89;;;13.27;69.71
47913;BME280;33676;51.006;17.180;2023-05-23T00:52:05;99944.58;;;13.23;69.93
47913;BME280;33676;51.006;17.180;2023-05-23T00:54:35;99943.37;;;13.19;69.99
47913;BME280;33676;51.006;17.180;2023-05-23T00:57:04;99944.84;;;13.15;70.11
47913;BME280;33676;51.006;17.180;2023-05-23T00:59:34;99946.97;;;13.11;70.08
47913;BME280;33676;51.006;17.180;2023-05-23T01:02:04;99942.11;;;13.06;70.24
47913;BME280;33676;51.006;17.180;2023-05-23T01:04:32;99941.52;;;13.02;70.34
47913;BME280;33676;51.006;17.180;2023-05-23T01:07:01;99938.52;;;12.97;70.40
47913;BME280;33676;51.006;17.180;2023-05-23T01:09:30;99937.30;;;12.93;70.51
47913;BME280;33676;51.006;17.180;2023-05-23T01:15:12;99932.94;;;12.85;70.83
47913;BME280;33676;51.006;17.180;2023-05-23T01:17:58;99931.59;;;12.80;70.99
47913;BME280;33676;51.006;17.180;2023-05-23T01:20:36;99932.84;;;12.78;71.10
47913;BME280;33676;51.006;17.180;2023-05-23T01:23:35;99929.85;;;12.76;71.14
47913;BME280;33676;51.006;17.180;2023-05-23T01:26:59;99930.39;;;12.75;71.45
47913;BME280;33676;51.006;17.180;2023-05-23T01:29:32;99935.31;;;12.71;71.46
47913;BME280;33676;51.006;17.180;2023-05-23T01:32:06;99935.23;;;12.68;71.56
47913;BME280;33676;51.006;17.180;2023-05-23T01:34:40;99931.25;;;12.63;71.69
47913;BME280;33676;51.006;17.180;2023-05-23T01:37:10;99928.77;;;12.59;71.63
47913;BME280;33676;51.006;17.180;2023-05-23T01:39:39;99929.02;;;12.57;71.85
47913;BME280;33676;51.006;17.180;2023-05-23T01:42:08;99930.35;;;12.54;71.80
47913;BME280;33676;51.006;17.180;2023-05-23T01:44:37;99928.05;;;12.52;71.98
47913;BME280;33676;51.006;17.180;2023-05-23T01:47:08;99924.44;;;12.50;72.11
47913;BME280;33676;51.006;17.180;2023-05-23T01:49:38;99925.65;;;12.46;72.15
47913;BME280;33676;51.006;17.180;2023-05-23T01:52:08;99926.40;;;12.44;72.25
47913;BME280;33676;51.006;17.180;2023-05-23T01:54:40;99924.85;;;12.41;72.45
47913;BME280;33676;51.006;17.180;2023-05-23T01:57:11;99920.06;;;12.38;72.44
47913;BME280;33676;51.006;17.180;2023-05-23T01:59:40;99920.13;;;12.36;72.48
47913;BME280;33676;51.006;17.180;2023-05-23T02:02:10;99919.21;;;12.32;72.66
47913;BME280;33676;51.006;17.180;2023-05-23T02:04:38;99915.61;;;12.29;72.67
47913;BME280;33676;51.006;17.180;2023-05-23T02:07:06;99914.66;;;12.26;72.74
47913;BME280;33676;51.006;17.180;2023-05-23T02:09:35;99915.52;;;12.23;72.81
47913;BME280;33676;51.006;17.180;2023-05-23T02:12:03;99911.05;;;12.20;72.89
47913;BME280;33676;51.006;17.180;2023-05-23T02:14:32;99907.84;;;12.17;72.97
47913;BME280;33676;51.006;17.180;2023-05-23T02:17:00;99903.83;;;12.13;72.96
47913;BME280;33676;51.006;17.180;2023-05-23T02:19:29;99903.94;;;12.08;73.16
47913;BME280;33676;51.006;17.180;2023-05-23T02:21:57;99900.05;;;12.02;73.25
47913;BME280;33676;51.006;17.180;2023-05-23T02:24:26;99901.26;;;11.97;73.36
47913;BME280;33676;51.006;17.180;2023-05-23T02:26:55;99901.02;;;11.91;73.50
47913;BME280;33676;51.006;17.180;2023-05-23T02:29:23;99893.55;;;11.87;73.53
47913;BME280;33676;51.006;17.180;2023-05-23T02:31:52;99888.34;;;11.84;73.66
47913;BME280;33676;51.006;17.180;2023-05-23T02:34:20;99889.34;;;11.81;73.82
47913;BME280;33676;51.006;17.180;2023-05-23T02:36:48;99884.43;;;11.79;73.99
47913;BME280;33676;51.006;17.180;2023-05-23T02:39:17;99886.70;;;11.77;74.12
47913;BME280;33676;51.006;17.180;2023-05-23T02:41:46;99883.05;;;11.75;74.28
47913;BME280;33676;51.006;17.180;2023-05-23T02:44:14;99883.51;;;11.74;74.32
47913;BME280;33676;51.006;17.180;2023-05-23T02:46:43;99891.08;;;11.73;74.46
47913;BME280;33676;51.006;17.180;2023-05-23T02:49:11;99888.73;;;11.72;74.68
47913;BME280;33676;51.006;17.180;2023-05-23T02:51:40;99885.58;;;11.72;74.82
47913;BME280;33676;51.006;17.180;2023-05-23T02:54:08;99884.64;;;11.71;74.87
47913;BME280;33676;51.006;17.180;2023-05-23T02:56:37;99882.84;;;11.69;74.86
47913;BME280;33676;51.006;17.180;2023-05-23T02:59:05;99878.93;;;11.68;74.98
47913;BME280;33676;51.006;17.180;2023-05-23T03:01:34;99877.20;;;11.68;75.14
47913;BME280;33676;51.006;17.180;2023-05-23T03:04:03;99870.53;;;11.68;75.34
47913;BME280;33676;51.006;17.180;2023-05-23T03:06:31;99871.08;;;11.68;75.33
47913;BME280;33676;51.006;17.180;2023-05-23T03:09:01;99868.84;;;11.67;75.47
47913;BME280;33676;51.006;17.180;2023-05-23T03:11:30;99867.44;;;11.67;75.58
47913;BME280;33676;51.006;17.180;2023-05-23T03:13:58;99863.95;;;11.67;75.72
47913;BME280;33676;51.006;17.180;2023-05-23T03:16:27;99859.23;;;11.67;75.71
47913;BME280;33676;51.006;17.180;2023-05-23T03:18:56;99860.36;;;11.66;75.65
47913;BME280;33676;51.006;17.180;2023-05-23T03:21:25;99857.34;;;11.65;75.78
47913;BME280;33676;51.006;17.180;2023-05-23T03:23:53;99859.44;;;11.65;75.85
47913;BME280;33676;51.006;17.180;2023-05-23T03:26:22;99855.35;;;11.65;75.96
47913;BME280;33676;51.006;17.180;2023-05-23T03:28:51;99856.41;;;11.67;75.97
47913;BME280;33676;51.006;17.180;2023-05-23T03:31:19;99855.08;;;11.68;76.16
47913;BME280;33676;51.006;17.180;2023-05-23T03:33:48;99854.86;;;11.71;76.24
47913;BME280;33676;51.006;17.180;2023-05-23T03:36:16;99850.75;;;11.74;76.44
47913;BME280;33676;51.006;17.180;2023-05-23T03:38:45;99851.64;;;11.78;76.59
47913;BME280;33676;51.006;17.180;2023-05-23T03:41:14;99846.84;;;11.80;76.66
47913;BME280;33676;51.006;17.180;2023-05-23T03:43:43;99843.63;;;11.83;76.89
47913;BME280;33676;51.006;17.180;2023-05-23T03:46:11;99840.78;;;11.87;77.04
47913;BME280;33676;51.006;17.180;2023-05-23T03:48:40;99844.92;;;11.92;77.01
47913;BME280;33676;51.006;17.180;2023-05-23T03:51:08;99847.77;;;11.96;77.12
47913;BME280;33676;51.006;17.180;2023-05-23T03:53:37;99850.87;;;12.00;77.27
47913;BME280;33676;51.006;17.180;2023-05-23T03:56:05;99851.46;;;12.05;77.32
47913;BME280;33676;51.006;17.180;2023-05-23T03:58:34;99852.95;;;12.10;77.41
47913;BME280;33676;51.006;17.180;2023-05-23T04:01:02;99848.25;;;12.15;77.51
47913;BME280;33676;51.006;17.180;2023-05-23T04:03:31;99847.71;;;12.21;77.50
47913;BME280;33676;51.006;17.180;2023-05-23T04:06:00;99848.56;;;12.27;77.56
47913;BME280;33676;51.006;17.180;2023-05-23T04:08:29;99841.67;;;12.31;77.66
47913;BME280;33676;51.006;17.180;2023-05-23T04:11:01;99840.77;;;12.37;77.79
47913;BME280;33676;51.006;17.180;2023-05-23T04:13:30;99840.38;;;12.43;77.69
47913;BME280;33676;51.006;17.180;2023-05-23T04:16:00;99841.80;;;12.50;77.93
47913;BME280;33676;51.006;17.180;2023-05-23T04:18:29;99844.08;;;12.58;77.93
47913;BME280;33676;51.006;17.180;2023-05-23T04:20:58;99840.88;;;12.64;77.95
47913;BME280;33676;51.006;17.180;2023-05-23T04:23:27;99838.04;;;12.70;77.88
47913;BME280;33676;51.006;17.180;2023-05-23T04:25:55;99839.15;;;12.77;77.85
47913;BME280;33676;51.006;17.180;2023-05-23T04:28:27;99836.95;;;12.83;77.93
47913;BME280;33676;51.006;17.180;2023-05-23T04:30:56;99836.02;;;12.91;77.93
47913;BME280;33676;51.006;17.180;2023-05-23T04:33:26;99836.94;;;12.98;77.94
47913;BME280;33676;51.006;17.180;2023-05-23T04:35:55;99836.85;;;13.06;78.02
47913;BME280;33676;51.006;17.180;2023-05-23T04:38:24;99833.27;;;13.14;78.02
47913;BME280;33676;51.006;17.180;2023-05-23T04:40:53;99832.39;;;13.24;78.12
47913;BME280;33676;51.006;17.180;2023-05-23T04:43:21;99831.16;;;13.35;78.11
47913;BME280;33676;51.006;17.180;2023-05-23T04:45:53;99827.10;;;13.46;78.21
47913;BME280;33676;51.006;17.180;2023-05-23T04:48:22;99821.95;;;13.57;78.31
47913;BME280;33676;51.006;17.180;2023-05-23T04:50:50;99820.48;;;13.68;78.29
47913;BME280;33676;51.006;17.180;2023-05-23T04:53:19;99821.80;;;13.80;78.33
47913;BME280;33676;51.006;17.180;2023-05-23T04:55:48;99816.10;;;13.91;78.37
47913;BME280;33676;51.006;17.180;2023-05-23T04:58:16;99812.14;;;14.05;78.54
47913;BME280;33676;51.006;17.180;2023-05-23T05:00:45;99810.45;;;14.18;78.63
47913;BME280;33676;51.006;17.180;2023-05-23T05:03:13;99806.10;;;14.31;78.68
47913;BME280;33676;51.006;17.180;2023-05-23T05:05:43;99808.29;;;14.44;78.53
47913;BME280;33676;51.006;17.180;2023-05-23T05:08:11;99806.21;;;14.58;78.67
47913;BME280;33676;51.006;17.180;2023-05-23T05:10:41;99805.67;;;14.73;78.72
47913;BME280;33676;51.006;17.180;2023-05-23T05:13:10;99805.58;;;14.88;78.71
47913;BME280;33676;51.006;17.180;2023-05-23T05:15:38;99806.10;;;15.03;78.63
47913;BME280;33676;51.006;17.180;2023-05-23T05:36:06;99796.83;;;16.03;78.87
47913;BME280;33676;51.006;17.180;2023-05-23T05:38:36;99800.86;;;16.24;78.63
47913;BME280;33676;51.006;17.180;2023-05-23T05:41:05;99800.83;;;16.39;78.30
47913;BME280;33676;51.006;17.180;2023-05-23T05:43:36;99797.73;;;16.52;78.00
47913;BME280;33676;51.006;17.180;2023-05-23T05:46:05;99798.00;;;16.68;78.06
47913;BME280;33676;51.006;17.180;2023-05-23T05:48:33;99789.54;;;16.85;78.08
47913;BME280;33676;51.006;17.180;2023-05-23T05:51:04;99788.12;;;17.01;77.74
47913;BME280;33676;51.006;17.180;2023-05-23T05:53:33;99782.75;;;17.13;77.37
47913;BME280;33676;51.006;17.180;2023-05-23T05:56:02;99781.58;;;17.25;77.04
47913;BME280;33676;51.006;17.180;2023-05-23T05:58:31;99780.31;;;17.40;76.98
47913;BME280;33676;51.006;17.180;2023-05-23T06:00:59;99780.48;;;17.51;76.31
47913;BME280;33676;51.006;17.180;2023-05-23T06:03:28;99780.07;;;17.62;75.89
47913;BME280;33676;51.006;17.180;2023-05-23T06:05:57;99782.03;;;17.73;75.64
47913;BME280;33676;51.006;17.180;2023-05-23T06:08:50;99784.25;;;17.91;75.91
47913;BME280;33676;51.006;17.180;2023-05-23T06:11:44;99781.00;;;18.04;75.39
47913;BME280;33676;51.006;17.180;2023-05-23T06:14:14;99785.51;;;18.21;75.49
47913;BME280;33676;51.006;17.180;2023-05-23T06:16:43;99785.48;;;18.37;75.36
47913;BME280;33676;51.006;17.180;2023-05-23T06:19:11;99787.97;;;18.53;75.31
47913;BME280;33676;51.006;17.180;2023-05-23T06:21:40;99782.70;;;18.70;74.98
47913;BME280;33676;51.006;17.180;2023-05-23T06:24:08;99785.26;;;18.79;74.45
47913;BME280;33676;51.006;17.180;2023-05-23T06:26:37;99781.31;;;18.90;74.68
47913;BME280;33676;51.006;17.180;2023-05-23T06:29:06;99778.88;;;19.01;74.83
47913;BME280;33676;51.006;17.180;2023-05-23T06:31:34;99778.60;;;19.07;74.64
47913;BME280;33676;51.006;17.180;2023-05-23T06:34:03;99781.64;;;19.06;74.23
47913;BME280;33676;51.006;17.180;2023-05-23T06:36:31;99780.73;;;19.06;73.76
47913;BME280;33676;51.006;17.180;2023-05-23T06:38:59;99783.25;;;19.07;73.57
47913;BME280;33676;51.006;17.180;2023-05-23T06:41:28;99790.25;;;19.08;73.41
47913;BME280;33676;51.006;17.180;2023-05-23T06:43:56;99784.17;;;19.10;73.40
47913;BME280;33676;51.006;17.180;2023-05-23T06:46:25;99788.02;;;19.13;73.29
47913;BME280;33676;51.006;17.180;2023-05-23T06:48:54;99782.41;;;19.16;73.39
47913;BME280;33676;51.006;17.180;2023-05-23T06:51:34;99777.77;;;19.20;73.44
47913;BME280;33676;51.006;17.180;2023-05-23T06:54:04;99777.55;;;19.26;73.35
47913;BME280;33676;51.006;17.180;2023-05-23T06:56:33;99779.54;;;19.32;73.45
47913;BME280;33676;51.006;17.180;2023-05-23T06:59:01;99779.80;;;19.40;73.52
47913;BME280;33676;51.006;17.180;2023-05-23T07:01:30;99780.42;;;19.48;73.34
47913;BME280;33676;51.006;17.180;2023-05-23T07:03:59;99778.17;;;19.57;73.28
47913;BME280;33676;51.006;17.180;2023-05-23T07:06:30;99773.40;;;19.66;73.07
47913;BME280;33676;51.006;17.180;2023-05-23T07:08:59;99766.17;;;19.75;72.87
47913;BME280;33676;51.006;17.180;2023-05-23T07:11:28;99764.17;;;19.87;72.93
47913;BME280;33676;51.006;17.180;2023-05-23T07:13:58;99758.15;;;20.00;73.08
47913;BME280;33676;51.006;17.180;2023-05-23T07:16:26;99754.45;;;20.13;73.24
47913;BME280;33676;51.006;17.180;2023-05-23T07:20:48;99747.73;;;20.43;73.34
47913;BME280;33676;51.006;17.180;2023-05-23T07:23:17;99746.00;;;20.61;73.38
47913;BME280;33676;51.006;17.180;2023-05-23T07:25:46;99742.47;;;20.79;73.18
47913;BME280;33676;51.006;17.180;2023-05-23T07:28:30;99742.77;;;20.98;72.78
47913;BME280;33676;51.006;17.180;2023-05-23T07:30:58;99742.31;;;21.14;72.58
47913;BME280;33676;51.006;17.180;2023-05-23T07:33:27;99744.75;;;21.31;72.11
47913;BME280;33676;51.006;17.180;2023-05-23T07:35:55;99742.98;;;21.37;71.19
47913;BME280;33676;51.006;17.180;2023-05-23T07:38:25;99738.29;;;21.48;71.69
47913;BME280;33676;51.006;17.180;2023-05-23T07:40:54;99733.92;;;21.68;71.68
47913;BME280;33676;51.006;17.180;2023-05-23T07:43:39;99730.30;;;21.88;71.56
47913;BME280;33676;51.006;17.180;2023-05-23T07:46:08;99726.25;;;22.06;71.34
47913;BME280;33676;51.006;17.180;2023-05-23T07:48:37;99724.96;;;22.24;71.41
47913;BME280;33676;51.006;17.180;2023-05-23T07:51:06;99726.74;;;22.43;71.46
47913;BME280;33676;51.006;17.180;2023-05-23T07:53:35;99723.08;;;22.63;71.29
47913;BME280;33676;51.006;17.180;2023-05-23T07:56:07;99719.02;;;22.82;71.06
47913;BME280;33676;51.006;17.180;2023-05-23T08:06:42;99712.70;;;23.89;70.42
47913;BME280;33676;51.006;17.180;2023-05-23T08:09:31;99720.20;;;24.09;70.01
47913;BME280;33676;51.006;17.180;2023-05-23T08:12:00;99727.19;;;24.32;69.83
47913;BME280;33676;51.006;17.180;2023-05-23T08:14:29;99729.48;;;24.52;69.50
47913;BME280;33676;51.006;17.180;2023-05-23T08:17:17;99727.65;;;24.70;69.02
47913;BME280;33676;51.006;17.180;2023-05-23T08:19:46;99725.62;;;24.85;68.58
47913;BME280;33676;51.006;17.180;2023-05-23T08:22:15;99720.73;;;25.00;68.32
47913;BME280;33676;51.006;17.180;2023-05-23T08:24:44;99721.38;;;25.16;68.07
47913;BME280;33676;51.006;17.180;2023-05-23T08:27:13;99723.55;;;25.29;67.68
47913;BME280;33676;51.006;17.180;2023-05-23T08:29:41;99723.58;;;25.38;67.25
47913;BME280;33676;51.006;17.180;2023-05-23T08:32:11;99728.55;;;25.43;66.87
47913;BME280;33676;51.006;17.180;2023-05-23T08:34:40;99730.02;;;25.47;66.52
47913;BME280;33676;51.006;17.180;2023-05-23T08:37:09;99737.73;;;25.36;64.70
47913;BME280;33676;51.006;17.180;2023-05-23T08:39:38;99738.55;;;24.89;63.72
47913;BME280;33676;51.006;17.180;2023-05-23T08:42:08;99739.45;;;24.52;63.80
47913;BME280;33676;51.006;17.180;2023-05-23T08:44:37;99744.85;;;24.29;64.24
47913;BME280;33676;51.006;17.180;2023-05-23T08:47:12;99744.57;;;24.13;64.47
47913;BME280;33676;51.006;17.180;2023-05-23T08:49:44;99755.09;;;23.97;64.44
47913;BME280;33676;51.006;17.180;2023-05-23T08:52:15;99762.20;;;23.88;64.57
47913;BME280;33676;51.006;17.180;2023-05-23T08:54:45;99774.04;;;23.87;64.78
47913;BME280;33676;51.006;17.180;2023-05-23T08:57:13;99779.34;;;23.81;64.81
47913;BME280;33676;51.006;17.180;2023-05-23T08:59:45;99781.41;;;23.75;64.88
47913;BME280;33676;51.006;17.180;2023-05-23T09:02:15;99782.65;;;23.67;65.14
47913;BME280;33676;51.006;17.180;2023-05-23T09:04:43;99783.59;;;23.61;65.48
47913;BME280;33676;51.006;17.180;2023-05-23T09:07:14;99784.29;;;23.51;65.59
47913;BME280;33676;51.006;17.180;2023-05-23T09:09:44;99781.05;;;23.42;65.94
47913;BME280;33676;51.006;17.180;2023-05-23T09:12:12;99778.77;;;23.32;65.75
47913;BME280;33676;51.006;17.180;2023-05-23T09:14:43;99773.73;;;23.21;65.86
47913;BME280;33676;51.006;17.180;2023-05-23T09:17:19;99768.16;;;23.05;65.83
47913;BME280;33676;51.006;17.180;2023-05-23T09:19:48;99766.84;;;22.88;65.78
47913;BME280;33676;51.006;17.180;2023-05-23T09:22:23;99769.05;;;22.79;66.39
47913;BME280;33676;51.006;17.180;2023-05-23T09:24:56;99767.86;;;22.75;66.71
47913;BME280;33676;51.006;17.180;2023-05-23T09:27:24;99774.00;;;22.67;66.71
47913;BME280;33676;51.006;17.180;2023-05-23T09:29:53;99773.70;;;22.57;66.88
47913;BME280;33676;51.006;17.180;2023-05-23T09:32:21;99772.64;;;22.51;67.10
47913;BME280;33676;51.006;17.180;2023-05-23T09:34:56;99767.48;;;22.43;67.39
47913;BME280;33676;51.006;17.180;2023-05-23T09:37:34;99774.80;;;22.38;67.73
47913;BME280;33676;51.006;17.180;2023-05-23T09:40:13;99783.83;;;22.25;68.59
47913;BME280;33676;51.006;17.180;2023-05-23T09:42:47;99778.77;;;21.98;69.05
47913;BME280;33676;51.006;17.180;2023-05-23T09:45:15;99779.96;;;21.78;69.93
47913;BME280;33676;51.006;17.180;2023-05-23T09:47:51;99783.14;;;21.64;70.70
47913;BME280;33676;51.006;17.180;2023-05-23T09:50:21;99784.51;;;21.48;71.01
47913;BME280;33676;51.006;17.180;2023-05-23T09:52:50;99788.53;;;21.30;70.89
47913;BME280;33676;51.006;17.180;2023-05-23T09:55:22;99789.81;;;21.22;70.88
47913;BME280;33676;51.006;17.180;2023-05-23T10:13:28;99807.69;;;20.76;72.72
47913;BME280;33676;51.006;17.180;2023-05-23T10:16:13;99811.35;;;20.71;73.17
47913;BME280;33676;51.006;17.180;2023-05-23T10:18:44;99805.50;;;20.67;73.59
47913;BME280;33676;51.006;17.180;2023-05-23T10:21:23;99801.39;;;20.64;73.82
47913;BME280;33676;51.006;17.180;2023-05-23T10:23:53;99802.45;;;20.64;74.12
47913;BME280;33676;51.006;17.180;2023-05-23T10:26:22;99807.22;;;20.66;74.30
47913;BME280;33676;51.006;17.180;2023-05-23T10:28:51;99800.49;;;20.71;74.91
47913;BME280;33676;51.006;17.180;2023-05-23T10:31:22;99801.10;;;20.70;75.08
47913;BME280;33676;51.006;17.180;2023-05-23T10:34:07;99802.15;;;20.75;75.11
47913;BME280;33676;51.006;17.180;2023-05-23T10:36:57;99797.38;;;20.84;75.48
47913;BME280;33676;51.006;17.180;2023-05-23T10:40:01;99797.36;;;20.91;75.61
47913;BME280;33676;51.006;17.180;2023-05-23T10:42:53;99798.89;;;20.92;75.39
47913;BME280;33676;51.006;17.180;2023-05-23T10:45:24;99799.42;;;21.00;75.86
47913;BME280;33676;51.006;17.180;2023-05-23T10:47:52;99799.66;;;20.99;77.05
47913;BME280;33676;51.006;17.180;2023-05-23T10:50:35;99799.25;;;20.90;78.02
47913;BME280;33676;51.006;17.180;2023-05-23T10:53:14;99801.55;;;21.00;78.83
47913;BME280;33676;51.006;17.180;2023-05-23T10:55:47;99797.41;;;21.09;79.24
47913;BME280;33676;51.006;17.180;2023-05-23T10:58:21;99794.77;;;21.21;79.45
47913;BME280;33676;51.006;17.180;2023-05-23T11:00:52;99792.63;;;21.26;78.63
47913;BME280;33676;51.006;17.180;2023-05-23T11:09:20;99788.23;;;22.09;78.80
47913;BME280;33676;51.006;17.180;2023-05-23T11:19:54;99788.95;;;23.49;78.26
47913;BME280;33676;51.006;17.180;2023-05-23T11:22:28;99781.67;;;24.07;79.08
47913;BME280;33676;51.006;17.180;2023-05-23T11:25:06;99776.67;;;24.68;78.95
47913;BME280;33676;51.006;17.180;2023-05-23T11:27:39;99771.73;;;25.17;78.78
47913;BME280;33676;51.006;17.180;2023-05-23T11:30:15;99770.42;;;25.50;77.97
47913;BME280;33676;51.006;17.180;2023-05-23T11:32:51;99769.73;;;25.79;77.29
47913;BME280;33676;51.006;17.180;2023-05-23T11:35:20;99767.52;;;26.12;76.63
47913;BME280;33676;51.006;17.180;2023-05-23T11:37:49;99764.11;;;26.57;76.76
47913;BME280;33676;51.006;17.180;2023-05-23T11:43:04;99765.02;;;27.41;75.81
47913;BME280;33676;51.006;17.180;2023-05-23T11:45:35;99769.02;;;27.73;74.76
47913;BME280;33676;51.006;17.180;2023-05-23T11:48:09;99765.88;;;27.87;73.64
47913;BME280;33676;51.006;17.180;2023-05-23T11:53:14;99763.83;;;28.31;73.04
47913;BME280;33676;51.006;17.180;2023-05-23T11:55:52;99765.11;;;28.31;70.56
47913;BME280;33676;51.006;17.180;2023-05-23T11:58:36;99765.02;;;28.08;70.53
47913;BME280;33676;51.006;17.180;2023-05-23T12:01:07;99760.71;;;28.19;71.59
47913;BME280;33676;51.006;17.180;2023-05-23T12:03:48;99751.67;;;28.46;71.63
47913;BME280;33676;51.006;17.180;2023-05-23T12:06:23;99749.90;;;28.72;71.72
47913;BME280;33676;51.006;17.180;2023-05-23T12:08:58;99752.74;;;29.05;71.71
47913;BME280;33676;51.006;17.180;2023-05-23T12:11:31;99759.11;;;29.20;70.92
47913;BME280;33676;51.006;17.180;2023-05-23T12:14:00;99760.74;;;29.58;71.22
47913;BME280;33676;51.006;17.180;2023-05-23T12:16:36;99761.01;;;30.33;71.95
47913;BME280;33676;51.006;17.180;2023-05-23T12:19:10;99761.70;;;30.94;71.74
47913;BME280;33676;51.006;17.180;2023-05-23T12:21:48;99763.13;;;31.43;70.58
47913;BME280;33676;51.006;17.180;2023-05-23T12:24:23;99762.09;;;31.90;69.74
47913;BME280;33676;51.006;17.180;2023-05-23T12:27:04;99762.30;;;32.42;69.40
47913;BME280;33676;51.006;17.180;2023-05-23T12:29:35;99763.33;;;32.58;68.03
47913;BME280;33676;51.006;17.180;2023-05-23T12:32:07;99766.94;;;32.52;66.57
47913;BME280;33676;51.006;17.180;2023-05-23T12:34:42;99760.77;;;32.49;66.10
47913;BME280;33676;51.006;17.180;2023-05-23T12:37:15;99759.73;;;32.48;65.79
47913;BME280;33676;51.006;17.180;2023-05-23T12:39:48;99756.46;;;32.27;64.67
47913;BME280;33676;51.006;17.180;2023-05-23T12:42:17;99755.63;;;31.97;63.77
47913;BME280;33676;51.006;17.180;2023-05-23T12:44:52;99748.74;;;31.69;63.62
47913;BME280;33676;51.006;17.180;2023-05-23T12:47:21;99750.18;;;31.41;63.58
47913;BME280;33676;51.006;17.180;2023-05-23T12:49:53;99748.83;;;31.14;63.65
47913;BME280;33676;51.006;17.180;2023-05-23T12:52:22;99745.83;;;30.80;63.25
47913;BME280;33676;51.006;17.180;2023-05-23T12:54:51;99750.01;;;30.30;62.26
47913;BME280;33676;51.006;17.180;2023-05-23T12:57:19;99746.30;;;29.21;61.78
47913;BME280;33676;51.006;17.180;2023-05-23T12:59:48;99743.89;;;28.30;62.67
47913;BME280;33676;51.006;17.180;2023-05-23T13:02:18;99741.67;;;27.77;63.39
47913;BME280;33676;51.006;17.180;2023-05-23T13:04:47;99742.27;;;27.34;63.81
47913;BME280;33676;51.006;17.180;2023-05-23T13:07:16;99740.99;;;27.02;64.08
47913;BME280;33676;51.006;17.180;2023-05-23T13:09:47;99740.39;;;27.01;64.31
47913;BME280;33676;51.006;17.180;2023-05-23T13:12:16;99735.30;;;27.18;65.17
47913;BME280;33676;51.006;17.180;2023-05-23T13:14:44;99730.95;;;27.46;65.97
47913;BME280;33676;51.006;17.180;2023-05-23T13:17:21;99729.11;;;27.60;65.60
47913;BME280;33676;51.006;17.180;2023-05-23T13:19:53;99724.64;;;27.60;65.31
47913;BME280;33676;51.006;17.180;2023-05-23T13:22:21;99729.60;;;27.73;65.71
47913;BME280;33676;51.006;17.180;2023-05-23T13:24:50;99727.39;;;27.89;65.88
47913;BME280;33676;51.006;17.180;2023-05-23T13:27:19;99723.79;;;28.09;65.90
47913;BME280;33676;51.006;17.180;2023-05-23T13:29:49;99713.77;;;28.27;66.19
47913;BME280;33676;51.006;17.180;2023-05-23T13:32:19;99712.48;;;28.43;66.22
47913;BME280;33676;51.006;17.180;2023-05-23T13:34:50;99709.23;;;28.53;65.69
47913;BME280;33676;51.006;17.180;2023-05-23T13:37:19;99708.77;;;28.52;64.54
47913;BME280;33676;51.006;17.180;2023-05-23T13:39:48;99708.65;;;28.51;64.48
47913;BME280;33676;51.006;17.180;2023-05-23T13:42:19;99710.13;;;28.76;64.91
47913;BME280;33676;51.006;17.180;2023-05-23T13:44:48;99706.32;;;29.27;65.76
47913;BME280;33676;51.006;17.180;2023-05-23T13:47:20;99708.99;;;30.12;66.15
47913;BME280;33676;51.006;17.180;2023-05-23T13:49:49;99709.00;;;30.96;65.39
47913;BME280;33676;51.006;17.180;2023-05-23T13:52:19;99713.54;;;31.38;61.57
47913;BME280;33676;51.006;17.180;2023-05-23T13:54:48;99716.39;;;31.24;60.56
47913;BME280;33676;51.006;17.180;2023-05-23T13:57:17;99725.80;;;31.49;60.98
47913;BME280;33676;51.006;17.180;2023-05-23T13:59:51;99728.03;;;31.84;60.55
47913;BME280;33676;51.006;17.180;2023-05-23T14:02:20;99727.90;;;32.06;59.54
47913;BME280;33676;51.006;17.180;2023-05-23T14:04:50;99727.63;;;32.12;59.01
47913;BME280;33676;51.006;17.180;2023-05-23T14:07:22;99728.98;;;32.35;59.13
47913;BME280;33676;51.006;17.180;2023-05-23T14:09:53;99722.77;;;32.56;60.01
47913;BME280;33676;51.006;17.180;2023-05-23T14:12:22;99722.68;;;33.62;61.38
47913;BME280;33676;51.006;17.180;2023-05-23T14:14:54;99725.00;;;34.95;62.37